首页
METAR-TAF:

METAR-TAF

机场 :

海得拉巴, 印度

纬度: 17-27N, 经度: 078-28E, 海拔: 530米

当前天气观测

该预报发布于33分钟前的14:30 UTC
风速1节,风向多变
温度 26°C
湿度 89%
气压 1009 hPa
能見度: 5000
散云层高于2000英尺
多云层高于10000英尺
霾,

METAR: VOHY 171430Z VRB01KT 5000 HZ SCT020 BKN100 26/24 Q1009 NO SIG

时间: 20:33 (15:03 UTC)

预报

该预报发布于1小时和3分钟前的14:00 UTC
预报有效从17日的 15点(UTC)到 17日的 24点(UTC)
风速10节,风向西
能見度: 5000
散云层高于1500英尺
多云层高于8000英尺
短暂存在
从 17日的 15点(UTC)到 17日的 20点(UTC)
风速12节,风向西
能見度: 5000
散云层高于1500英尺
多云层高于8000英尺
霾, 毛毛雨,

TAF: VOHY 171400Z 1715/1724 28010KT 5000 HZ SCT015 BKN080 TEMPO 1715/1720 26012KT 5000 HZ DZ SCT015 BKN080

超过4000个机场的气象观测和天气预报(METAR&TAF报告)。

可查询的气象台以黄色和红色小点在地图上表示。

将鼠标移到小点上方,可查看气象台名称。

然后点击查看天气观测和预报。

如需切换地图:点击带黑十字的绿色按钮放大地图;点击带横线的绿色按钮缩小地图;或者点击绿色箭头查看邻近地区的地图。


METAR-TAF: